sensor_id;sensor_type;location;lat;lon;timestamp;P1;durP1;ratioP1;P2;durP2;ratioP2
7957;SDS011;4024;52.172;5.378;2024-03-17T00:00:23;15.43;;;10.63;;
7957;SDS011;4024;52.172;5.378;2024-03-17T00:02:48;15.53;;;10.30;;
7957;SDS011;4024;52.172;5.378;2024-03-17T00:05:14;17.57;;;10.30;;
7957;SDS011;4024;52.172;5.378;2024-03-17T00:07:40;16.83;;;11.47;;
7957;SDS011;4024;52.172;5.378;2024-03-17T00:10:06;18.17;;;10.40;;
7957;SDS011;4024;52.172;5.378;2024-03-17T00:12:32;16.30;;;10.50;;
7957;SDS011;4024;52.172;5.378;2024-03-17T00:15:01;21.20;;;11.70;;
7957;SDS011;4024;52.172;5.378;2024-03-17T00:17:28;19.30;;;10.60;;
7957;SDS011;4024;52.172;5.378;2024-03-17T00:19:54;19.50;;;10.93;;
7957;SDS011;4024;52.172;5.378;2024-03-17T00:22:20;22.83;;;10.97;;
7957;SDS011;4024;52.172;5.378;2024-03-17T00:24:45;17.37;;;10.70;;
7957;SDS011;4024;52.172;5.378;2024-03-17T00:27:11;16.67;;;10.67;;
7957;SDS011;4024;52.172;5.378;2024-03-17T00:29:37;17.37;;;9.60;;
7957;SDS011;4024;52.172;5.378;2024-03-17T00:32:03;15.77;;;10.53;;
7957;SDS011;4024;52.172;5.378;2024-03-17T00:34:30;16.93;;;10.27;;
7957;SDS011;4024;52.172;5.378;2024-03-17T00:36:55;17.83;;;10.63;;
7957;SDS011;4024;52.172;5.378;2024-03-17T00:39:21;17.20;;;10.43;;
7957;SDS011;4024;52.172;5.378;2024-03-17T00:41:47;16.50;;;10.23;;
7957;SDS011;4024;52.172;5.378;2024-03-17T00:44:14;16.47;;;10.20;;
7957;SDS011;4024;52.172;5.378;2024-03-17T00:46:40;21.40;;;9.83;;
7957;SDS011;4024;52.172;5.378;2024-03-17T00:49:07;18.50;;;9.43;;
7957;SDS011;4024;52.172;5.378;2024-03-17T00:51:34;16.10;;;9.57;;
7957;SDS011;4024;52.172;5.378;2024-03-17T00:53:59;15.83;;;9.43;;
7957;SDS011;4024;52.172;5.378;2024-03-17T00:56:25;15.63;;;9.73;;
7957;SDS011;4024;52.172;5.378;2024-03-17T00:58:50;17.33;;;9.57;;
7957;SDS011;4024;52.172;5.378;2024-03-17T01:01:17;14.17;;;9.13;;
7957;SDS011;4024;52.172;5.378;2024-03-17T01:03:44;17.63;;;9.47;;
7957;SDS011;4024;52.172;5.378;2024-03-17T01:06:11;14.83;;;9.13;;
7957;SDS011;4024;52.172;5.378;2024-03-17T01:08:36;12.93;;;8.77;;
7957;SDS011;4024;52.172;5.378;2024-03-17T01:11:02;17.93;;;8.77;;
7957;SDS011;4024;52.172;5.378;2024-03-17T01:13:28;15.23;;;9.17;;
7957;SDS011;4024;52.172;5.378;2024-03-17T01:15:54;15.50;;;9.03;;
7957;SDS011;4024;52.172;5.378;2024-03-17T01:18:19;13.57;;;9.30;;
7957;SDS011;4024;52.172;5.378;2024-03-17T01:20:45;9.67;;;8.67;;
7957;SDS011;4024;52.172;5.378;2024-03-17T01:23:11;13.37;;;9.10;;
7957;SDS011;4024;52.172;5.378;2024-03-17T01:25:37;17.90;;;8.97;;
7957;SDS011;4024;52.172;5.378;2024-03-17T01:28:03;13.93;;;8.73;;
7957;SDS011;4024;52.172;5.378;2024-03-17T01:30:29;15.43;;;8.83;;
7957;SDS011;4024;52.172;5.378;2024-03-17T01:32:55;19.37;;;9.50;;
7957;SDS011;4024;52.172;5.378;2024-03-17T01:35:21;15.43;;;8.63;;
7957;SDS011;4024;52.172;5.378;2024-03-17T01:37:48;17.63;;;8.93;;
7957;SDS011;4024;52.172;5.378;2024-03-17T01:40:14;12.60;;;9.17;;
7957;SDS011;4024;52.172;5.378;2024-03-17T01:42:40;15.17;;;9.83;;
7957;SDS011;4024;52.172;5.378;2024-03-17T01:45:48;17.30;;;8.93;;
7957;SDS011;4024;52.172;5.378;2024-03-17T01:47:56;13.37;;;9.20;;
7957;SDS011;4024;52.172;5.378;2024-03-17T01:50:23;17.57;;;8.93;;
7957;SDS011;4024;52.172;5.378;2024-03-17T01:53:01;16.53;;;8.83;;
7957;SDS011;4024;52.172;5.378;2024-03-17T01:55:30;12.80;;;8.67;;
7957;SDS011;4024;52.172;5.378;2024-03-17T01:57:57;13.40;;;9.53;;
7957;SDS011;4024;52.172;5.378;2024-03-17T02:00:23;13.40;;;9.23;;
7957;SDS011;4024;52.172;5.378;2024-03-17T02:02:48;11.37;;;8.47;;
7957;SDS011;4024;52.172;5.378;2024-03-17T02:05:14;18.13;;;8.87;;
7957;SDS011;4024;52.172;5.378;2024-03-17T02:07:40;14.77;;;9.47;;
7957;SDS011;4024;52.172;5.378;2024-03-17T02:10:06;17.60;;;9.20;;
7957;SDS011;4024;52.172;5.378;2024-03-17T02:12:33;13.33;;;8.70;;
7957;SDS011;4024;52.172;5.378;2024-03-17T02:14:59;16.40;;;9.17;;
7957;SDS011;4024;52.172;5.378;2024-03-17T02:17:26;13.60;;;9.13;;
7957;SDS011;4024;52.172;5.378;2024-03-17T02:19:54;14.77;;;9.33;;
7957;SDS011;4024;52.172;5.378;2024-03-17T02:22:20;14.83;;;8.30;;
7957;SDS011;4024;52.172;5.378;2024-03-17T02:24:46;13.73;;;8.87;;
7957;SDS011;4024;52.172;5.378;2024-03-17T02:27:12;12.23;;;8.87;;
7957;SDS011;4024;52.172;5.378;2024-03-17T02:29:38;13.17;;;9.10;;
7957;SDS011;4024;52.172;5.378;2024-03-17T02:32:04;12.43;;;8.70;;
7957;SDS011;4024;52.172;5.378;2024-03-17T02:34:33;14.60;;;10.00;;
7957;SDS011;4024;52.172;5.378;2024-03-17T02:36:59;21.87;;;9.60;;
7957;SDS011;4024;52.172;5.378;2024-03-17T02:39:26;14.83;;;9.70;;
7957;SDS011;4024;52.172;5.378;2024-03-17T02:42:04;23.40;;;9.90;;
7957;SDS011;4024;52.172;5.378;2024-03-17T02:44:32;13.07;;;9.30;;
7957;SDS011;4024;52.172;5.378;2024-03-17T02:46:59;14.70;;;9.40;;
7957;SDS011;4024;52.172;5.378;2024-03-17T02:49:25;18.50;;;10.07;;
7957;SDS011;4024;52.172;5.378;2024-03-17T02:51:52;16.63;;;9.70;;
7957;SDS011;4024;52.172;5.378;2024-03-17T02:54:19;19.20;;;9.97;;
7957;SDS011;4024;52.172;5.378;2024-03-17T02:56:45;12.03;;;9.10;;
7957;SDS011;4024;52.172;5.378;2024-03-17T02:59:12;12.30;;;8.93;;
7957;SDS011;4024;52.172;5.378;2024-03-17T03:01:37;17.40;;;9.67;;
7957;SDS011;4024;52.172;5.378;2024-03-17T03:04:03;12.03;;;8.53;;
7957;SDS011;4024;52.172;5.378;2024-03-17T03:06:29;14.40;;;8.67;;
7957;SDS011;4024;52.172;5.378;2024-03-17T03:08:54;11.77;;;8.93;;
7957;SDS011;4024;52.172;5.378;2024-03-17T03:11:20;13.17;;;9.03;;
7957;SDS011;4024;52.172;5.378;2024-03-17T03:13:45;14.53;;;9.27;;
7957;SDS011;4024;52.172;5.378;2024-03-17T03:16:12;13.23;;;9.37;;
7957;SDS011;4024;52.172;5.378;2024-03-17T03:18:41;12.87;;;9.03;;
7957;SDS011;4024;52.172;5.378;2024-03-17T03:21:09;14.17;;;9.30;;
7957;SDS011;4024;52.172;5.378;2024-03-17T03:23:36;15.00;;;9.77;;
7957;SDS011;4024;52.172;5.378;2024-03-17T03:26:02;10.97;;;9.10;;
7957;SDS011;4024;52.172;5.378;2024-03-17T03:28:30;14.93;;;9.00;;
7957;SDS011;4024;52.172;5.378;2024-03-17T03:30:58;12.20;;;9.57;;
7957;SDS011;4024;52.172;5.378;2024-03-17T03:33:24;12.17;;;8.87;;
7957;SDS011;4024;52.172;5.378;2024-03-17T03:35:50;15.17;;;9.17;;
7957;SDS011;4024;52.172;5.378;2024-03-17T03:38:16;11.53;;;8.67;;
7957;SDS011;4024;52.172;5.378;2024-03-17T03:40:42;13.23;;;9.57;;
7957;SDS011;4024;52.172;5.378;2024-03-17T03:43:08;16.50;;;9.37;;
7957;SDS011;4024;52.172;5.378;2024-03-17T03:45:35;14.20;;;9.13;;
7957;SDS011;4024;52.172;5.378;2024-03-17T03:48:01;16.37;;;9.90;;
7957;SDS011;4024;52.172;5.378;2024-03-17T03:50:28;11.20;;;9.00;;
7957;SDS011;4024;52.172;5.378;2024-03-17T03:52:54;14.83;;;8.87;;
7957;SDS011;4024;52.172;5.378;2024-03-17T03:55:19;12.57;;;9.57;;
7957;SDS011;4024;52.172;5.378;2024-03-17T03:57:45;16.83;;;9.47;;
7957;SDS011;4024;52.172;5.378;2024-03-17T04:00:13;12.23;;;9.27;;
7957;SDS011;4024;52.172;5.378;2024-03-17T04:02:39;9.90;;;8.87;;
7957;SDS011;4024;52.172;5.378;2024-03-17T04:05:05;11.97;;;8.70;;
7957;SDS011;4024;52.172;5.378;2024-03-17T04:07:31;12.20;;;9.03;;
7957;SDS011;4024;52.172;5.378;2024-03-17T04:09:57;12.27;;;8.93;;
7957;SDS011;4024;52.172;5.378;2024-03-17T04:12:23;13.10;;;9.80;;
7957;SDS011;4024;52.172;5.378;2024-03-17T04:14:50;16.67;;;8.97;;
7957;SDS011;4024;52.172;5.378;2024-03-17T04:17:17;14.60;;;9.50;;
7957;SDS011;4024;52.172;5.378;2024-03-17T04:19:44;14.60;;;9.33;;
7957;SDS011;4024;52.172;5.378;2024-03-17T04:22:10;17.60;;;9.37;;
7957;SDS011;4024;52.172;5.378;2024-03-17T04:24:36;12.10;;;9.10;;
7957;SDS011;4024;52.172;5.378;2024-03-17T04:27:02;14.10;;;9.47;;
7957;SDS011;4024;52.172;5.378;2024-03-17T04:29:29;12.13;;;9.23;;
7957;SDS011;4024;52.172;5.378;2024-03-17T04:31:55;13.30;;;9.60;;
7957;SDS011;4024;52.172;5.378;2024-03-17T04:34:20;13.43;;;9.83;;
7957;SDS011;4024;52.172;5.378;2024-03-17T04:36:46;13.30;;;9.43;;
7957;SDS011;4024;52.172;5.378;2024-03-17T04:39:12;11.77;;;9.13;;
7957;SDS011;4024;52.172;5.378;2024-03-17T04:41:37;16.93;;;9.90;;
7957;SDS011;4024;52.172;5.378;2024-03-17T04:44:05;14.00;;;9.90;;
7957;SDS011;4024;52.172;5.378;2024-03-17T04:46:32;18.20;;;9.50;;
7957;SDS011;4024;52.172;5.378;2024-03-17T04:48:57;17.97;;;9.87;;
7957;SDS011;4024;52.172;5.378;2024-03-17T04:51:23;16.97;;;10.53;;
7957;SDS011;4024;52.172;5.378;2024-03-17T04:53:49;13.33;;;9.93;;
7957;SDS011;4024;52.172;5.378;2024-03-17T04:56:14;15.63;;;9.97;;
7957;SDS011;4024;52.172;5.378;2024-03-17T04:58:40;12.90;;;9.57;;
7957;SDS011;4024;52.172;5.378;2024-03-17T05:01:06;14.70;;;10.67;;
7957;SDS011;4024;52.172;5.378;2024-03-17T05:03:33;12.27;;;9.53;;
7957;SDS011;4024;52.172;5.378;2024-03-17T05:06:07;15.37;;;9.97;;
7957;SDS011;4024;52.172;5.378;2024-03-17T05:08:33;14.33;;;9.70;;
7957;SDS011;4024;52.172;5.378;2024-03-17T05:11:00;13.70;;;9.90;;
7957;SDS011;4024;52.172;5.378;2024-03-17T05:13:29;12.80;;;9.73;;
7957;SDS011;4024;52.172;5.378;2024-03-17T05:15:56;13.73;;;9.90;;
7957;SDS011;4024;52.172;5.378;2024-03-17T05:18:22;11.07;;;9.83;;
7957;SDS011;4024;52.172;5.378;2024-03-17T05:21:00;16.13;;;10.77;;
7957;SDS011;4024;52.172;5.378;2024-03-17T05:23:29;15.40;;;10.23;;
7957;SDS011;4024;52.172;5.378;2024-03-17T05:25:57;12.00;;;9.73;;
7957;SDS011;4024;52.172;5.378;2024-03-17T05:28:24;12.77;;;10.03;;
7957;SDS011;4024;52.172;5.378;2024-03-17T05:30:51;13.00;;;10.33;;
7957;SDS011;4024;52.172;5.378;2024-03-17T05:33:17;13.00;;;9.97;;
7957;SDS011;4024;52.172;5.378;2024-03-17T05:35:51;13.83;;;10.80;;
7957;SDS011;4024;52.172;5.378;2024-03-17T05:38:21;15.87;;;11.67;;
7957;SDS011;4024;52.172;5.378;2024-03-17T05:40:52;14.70;;;10.03;;
7957;SDS011;4024;52.172;5.378;2024-03-17T05:43:19;14.93;;;10.73;;
7957;SDS011;4024;52.172;5.378;2024-03-17T05:45:46;16.60;;;10.50;;
7957;SDS011;4024;52.172;5.378;2024-03-17T05:48:11;13.63;;;10.23;;
7957;SDS011;4024;52.172;5.378;2024-03-17T05:50:37;13.07;;;10.77;;
7957;SDS011;4024;52.172;5.378;2024-03-17T05:53:04;16.60;;;10.87;;
7957;SDS011;4024;52.172;5.378;2024-03-17T05:55:30;13.00;;;10.40;;
7957;SDS011;4024;52.172;5.378;2024-03-17T05:57:56;13.73;;;10.23;;
7957;SDS011;4024;52.172;5.378;2024-03-17T06:00:21;15.00;;;10.57;;
7957;SDS011;4024;52.172;5.378;2024-03-17T06:02:47;15.93;;;11.10;;
7957;SDS011;4024;52.172;5.378;2024-03-17T06:05:13;13.57;;;10.97;;
7957;SDS011;4024;52.172;5.378;2024-03-17T06:07:40;14.43;;;10.13;;
7957;SDS011;4024;52.172;5.378;2024-03-17T06:10:06;15.87;;;10.37;;
7957;SDS011;4024;52.172;5.378;2024-03-17T06:12:32;14.03;;;11.03;;
7957;SDS011;4024;52.172;5.378;2024-03-17T06:14:58;15.37;;;11.23;;
7957;SDS011;4024;52.172;5.378;2024-03-17T06:17:24;13.40;;;10.77;;
7957;SDS011;4024;52.172;5.378;2024-03-17T06:19:52;12.27;;;10.17;;
7957;SDS011;4024;52.172;5.378;2024-03-17T06:22:18;16.30;;;11.67;;
7957;SDS011;4024;52.172;5.378;2024-03-17T06:24:43;15.07;;;11.57;;
7957;SDS011;4024;52.172;5.378;2024-03-17T06:27:10;12.27;;;10.97;;
7957;SDS011;4024;52.172;5.378;2024-03-17T06:29:36;12.53;;;10.70;;
7957;SDS011;4024;52.172;5.378;2024-03-17T06:32:01;11.90;;;10.27;;
7957;SDS011;4024;52.172;5.378;2024-03-17T06:34:27;12.83;;;10.97;;
7957;SDS011;4024;52.172;5.378;2024-03-17T06:36:52;15.07;;;10.70;;
7957;SDS011;4024;52.172;5.378;2024-03-17T06:39:18;15.23;;;11.43;;
7957;SDS011;4024;52.172;5.378;2024-03-17T06:41:46;12.07;;;10.73;;
7957;SDS011;4024;52.172;5.378;2024-03-17T06:44:12;12.63;;;10.30;;
7957;SDS011;4024;52.172;5.378;2024-03-17T06:46:37;16.07;;;10.47;;
7957;SDS011;4024;52.172;5.378;2024-03-17T06:49:03;12.40;;;11.10;;
7957;SDS011;4024;52.172;5.378;2024-03-17T06:51:28;14.73;;;10.73;;
7957;SDS011;4024;52.172;5.378;2024-03-17T06:53:54;14.33;;;10.77;;
7957;SDS011;4024;52.172;5.378;2024-03-17T06:56:20;14.87;;;10.77;;
7957;SDS011;4024;52.172;5.378;2024-03-17T06:58:45;12.90;;;10.17;;
7957;SDS011;4024;52.172;5.378;2024-03-17T07:01:11;14.17;;;10.73;;
7957;SDS011;4024;52.172;5.378;2024-03-17T07:03:37;13.67;;;10.30;;
7957;SDS011;4024;52.172;5.378;2024-03-17T07:06:03;13.17;;;11.03;;
7957;SDS011;4024;52.172;5.378;2024-03-17T07:08:30;15.13;;;10.77;;
7957;SDS011;4024;52.172;5.378;2024-03-17T07:11:00;13.83;;;10.17;;
7957;SDS011;4024;52.172;5.378;2024-03-17T07:13:28;13.63;;;10.40;;
7957;SDS011;4024;52.172;5.378;2024-03-17T07:15:55;13.60;;;10.97;;
7957;SDS011;4024;52.172;5.378;2024-03-17T07:18:21;17.80;;;10.80;;
7957;SDS011;4024;52.172;5.378;2024-03-17T07:20:47;11.47;;;10.23;;
7957;SDS011;4024;52.172;5.378;2024-03-17T07:23:15;13.13;;;10.57;;
7957;SDS011;4024;52.172;5.378;2024-03-17T07:25:41;13.57;;;10.60;;
7957;SDS011;4024;52.172;5.378;2024-03-17T07:28:08;12.07;;;10.03;;
7957;SDS011;4024;52.172;5.378;2024-03-17T07:30:34;12.73;;;10.43;;
7957;SDS011;4024;52.172;5.378;2024-03-17T07:33:00;14.60;;;10.57;;
7957;SDS011;4024;52.172;5.378;2024-03-17T07:35:25;11.60;;;10.00;;
7957;SDS011;4024;52.172;5.378;2024-03-17T07:37:51;13.53;;;10.57;;
7957;SDS011;4024;52.172;5.378;2024-03-17T07:40:16;14.27;;;10.23;;
7957;SDS011;4024;52.172;5.378;2024-03-17T07:42:42;12.27;;;9.83;;
7957;SDS011;4024;52.172;5.378;2024-03-17T07:45:08;14.13;;;10.87;;
7957;SDS011;4024;52.172;5.378;2024-03-17T07:47:34;11.47;;;9.47;;
7957;SDS011;4024;52.172;5.378;2024-03-17T07:50:02;10.77;;;9.67;;
7957;SDS011;4024;52.172;5.378;2024-03-17T07:52:31;11.27;;;9.57;;
7957;SDS011;4024;52.172;5.378;2024-03-17T07:54:57;12.03;;;10.10;;
7957;SDS011;4024;52.172;5.378;2024-03-17T07:57:23;11.40;;;10.00;;
7957;SDS011;4024;52.172;5.378;2024-03-17T07:59:52;12.37;;;9.97;;
7957;SDS011;4024;52.172;5.378;2024-03-17T08:02:17;10.40;;;9.30;;
7957;SDS011;4024;52.172;5.378;2024-03-17T08:04:43;10.77;;;8.97;;
7957;SDS011;4024;52.172;5.378;2024-03-17T08:07:12;10.07;;;9.07;;
7957;SDS011;4024;52.172;5.378;2024-03-17T08:09:37;11.50;;;9.13;;
7957;SDS011;4024;52.172;5.378;2024-03-17T08:12:03;9.97;;;8.73;;
7957;SDS011;4024;52.172;5.378;2024-03-17T08:14:29;10.20;;;9.20;;
7957;SDS011;4024;52.172;5.378;2024-03-17T08:16:55;11.03;;;8.93;;
7957;SDS011;4024;52.172;5.378;2024-03-17T08:19:21;10.50;;;9.33;;
7957;SDS011;4024;52.172;5.378;2024-03-17T08:21:47;10.13;;;8.40;;
7957;SDS011;4024;52.172;5.378;2024-03-17T08:24:12;10.00;;;8.67;;
7957;SDS011;4024;52.172;5.378;2024-03-17T08:26:38;10.93;;;9.00;;
7957;SDS011;4024;52.172;5.378;2024-03-17T08:29:05;11.30;;;9.10;;
7957;SDS011;4024;52.172;5.378;2024-03-17T08:31:31;10.67;;;9.07;;
7957;SDS011;4024;52.172;5.378;2024-03-17T08:33:57;10.73;;;8.53;;
7957;SDS011;4024;52.172;5.378;2024-03-17T08:36:23;12.07;;;9.33;;
7957;SDS011;4024;52.172;5.378;2024-03-17T08:38:50;13.73;;;9.43;;
7957;SDS011;4024;52.172;5.378;2024-03-17T08:41:16;9.97;;;8.53;;
7957;SDS011;4024;52.172;5.378;2024-03-17T08:43:41;11.87;;;9.57;;
7957;SDS011;4024;52.172;5.378;2024-03-17T08:46:08;11.50;;;9.20;;
7957;SDS011;4024;52.172;5.378;2024-03-17T08:48:36;11.00;;;9.53;;
7957;SDS011;4024;52.172;5.378;2024-03-17T08:51:03;11.80;;;9.37;;
7957;SDS011;4024;52.172;5.378;2024-03-17T08:53:30;12.20;;;9.80;;
7957;SDS011;4024;52.172;5.378;2024-03-17T08:55:57;10.23;;;9.17;;
7957;SDS011;4024;52.172;5.378;2024-03-17T08:58:23;16.73;;;9.83;;
7957;SDS011;4024;52.172;5.378;2024-03-17T09:00:50;11.30;;;8.83;;
7957;SDS011;4024;52.172;5.378;2024-03-17T09:03:16;11.50;;;9.30;;
7957;SDS011;4024;52.172;5.378;2024-03-17T09:05:43;11.60;;;9.33;;
7957;SDS011;4024;52.172;5.378;2024-03-17T09:08:17;10.53;;;9.43;;
7957;SDS011;4024;52.172;5.378;2024-03-17T09:10:47;13.20;;;9.73;;
7957;SDS011;4024;52.172;5.378;2024-03-17T09:13:14;11.97;;;9.40;;
7957;SDS011;4024;52.172;5.378;2024-03-17T09:18:21;11.77;;;9.37;;
7957;SDS011;4024;52.172;5.378;2024-03-17T09:20:55;11.43;;;9.00;;
7957;SDS011;4024;52.172;5.378;2024-03-17T09:23:24;11.10;;;9.87;;
7957;SDS011;4024;52.172;5.378;2024-03-17T09:25:55;13.50;;;9.67;;
7957;SDS011;4024;52.172;5.378;2024-03-17T09:28:28;10.80;;;9.17;;
7957;SDS011;4024;52.172;5.378;2024-03-17T09:30:55;10.67;;;8.77;;
7957;SDS011;4024;52.172;5.378;2024-03-17T09:33:22;10.67;;;8.87;;
7957;SDS011;4024;52.172;5.378;2024-03-17T09:38:23;12.17;;;9.20;;
7957;SDS011;4024;52.172;5.378;2024-03-17T09:40:49;9.50;;;8.30;;
7957;SDS011;4024;52.172;5.378;2024-03-17T09:43:18;10.77;;;9.10;;
7957;SDS011;4024;52.172;5.378;2024-03-17T09:45:44;12.70;;;9.07;;
7957;SDS011;4024;52.172;5.378;2024-03-17T09:48:13;10.90;;;9.20;;
7957;SDS011;4024;52.172;5.378;2024-03-17T09:50:40;13.37;;;8.90;;
7957;SDS011;4024;52.172;5.378;2024-03-17T09:53:06;10.90;;;9.03;;
7957;SDS011;4024;52.172;5.378;2024-03-17T09:55:40;10.60;;;9.10;;
7957;SDS011;4024;52.172;5.378;2024-03-17T09:58:08;10.20;;;9.10;;
7957;SDS011;4024;52.172;5.378;2024-03-17T10:00:45;10.07;;;9.07;;
7957;SDS011;4024;52.172;5.378;2024-03-17T10:03:11;14.07;;;9.47;;
7957;SDS011;4024;52.172;5.378;2024-03-17T10:06:00;9.80;;;8.80;;
7957;SDS011;4024;52.172;5.378;2024-03-17T10:08:26;10.40;;;8.77;;
7957;SDS011;4024;52.172;5.378;2024-03-17T10:10:54;10.67;;;8.77;;
7957;SDS011;4024;52.172;5.378;2024-03-17T10:13:20;10.03;;;8.47;;
7957;SDS011;4024;52.172;5.378;2024-03-17T10:15:49;10.33;;;9.20;;
7957;SDS011;4024;52.172;5.378;2024-03-17T10:18:21;10.93;;;8.93;;
7957;SDS011;4024;52.172;5.378;2024-03-17T10:20:48;12.03;;;8.60;;
7957;SDS011;4024;52.172;5.378;2024-03-17T10:23:21;14.07;;;8.90;;
7957;SDS011;4024;52.172;5.378;2024-03-17T10:25:48;12.23;;;8.87;;
7957;SDS011;4024;52.172;5.378;2024-03-17T10:28:14;9.63;;;8.63;;
7957;SDS011;4024;52.172;5.378;2024-03-17T10:30:41;8.73;;;7.87;;
7957;SDS011;4024;52.172;5.378;2024-03-17T10:33:22;11.47;;;8.90;;
7957;SDS011;4024;52.172;5.378;2024-03-17T10:35:50;13.00;;;9.10;;
7957;SDS011;4024;52.172;5.378;2024-03-17T10:38:22;11.13;;;8.73;;
7957;SDS011;4024;52.172;5.378;2024-03-17T10:40:49;10.90;;;8.80;;
7957;SDS011;4024;52.172;5.378;2024-03-17T10:43:15;9.93;;;8.90;;
7957;SDS011;4024;52.172;5.378;2024-03-17T10:45:41;11.63;;;8.43;;
7957;SDS011;4024;52.172;5.378;2024-03-17T10:48:08;10.03;;;8.27;;
7957;SDS011;4024;52.172;5.378;2024-03-17T10:50:37;8.90;;;8.07;;
7957;SDS011;4024;52.172;5.378;2024-03-17T10:53:05;10.07;;;8.57;;
7957;SDS011;4024;52.172;5.378;2024-03-17T10:55:43;10.43;;;8.33;;
7957;SDS011;4024;52.172;5.378;2024-03-17T11:00:59;10.33;;;7.97;;
7957;SDS011;4024;52.172;5.378;2024-03-17T11:03:28;9.97;;;7.70;;
7957;SDS011;4024;52.172;5.378;2024-03-17T11:05:58;9.87;;;7.87;;
7957;SDS011;4024;52.172;5.378;2024-03-17T11:08:29;10.23;;;7.87;;
7957;SDS011;4024;52.172;5.378;2024-03-17T11:10:57;10.30;;;7.77;;
7957;SDS011;4024;52.172;5.378;2024-03-17T11:13:23;11.83;;;7.40;;
7957;SDS011;4024;52.172;5.378;2024-03-17T11:15:51;9.67;;;7.70;;
7957;SDS011;4024;52.172;5.378;2024-03-17T11:23:33;10.37;;;7.73;;
7957;SDS011;4024;52.172;5.378;2024-03-17T11:26:00;9.20;;;7.73;;
7957;SDS011;4024;52.172;5.378;2024-03-17T11:37:00;11.67;;;8.23;;
7957;SDS011;4024;52.172;5.378;2024-03-17T11:42:14;8.83;;;7.67;;
7957;SDS011;4024;52.172;5.378;2024-03-17T11:44:54;9.00;;;7.10;;
7957;SDS011;4024;52.172;5.378;2024-03-17T11:47:23;10.80;;;7.53;;
7957;SDS011;4024;52.172;5.378;2024-03-17T11:49:59;9.13;;;7.60;;
7957;SDS011;4024;52.172;5.378;2024-03-17T11:52:28;8.00;;;6.87;;
7957;SDS011;4024;52.172;5.378;2024-03-17T11:54:54;8.20;;;7.03;;
7957;SDS011;4024;52.172;5.378;2024-03-17T11:57:26;9.30;;;7.00;;
7957;SDS011;4024;52.172;5.378;2024-03-17T11:59:52;9.00;;;7.80;;
7957;SDS011;4024;52.172;5.378;2024-03-17T12:04:56;12.20;;;8.27;;
7957;SDS011;4024;52.172;5.378;2024-03-17T12:07:23;9.83;;;7.73;;
7957;SDS011;4024;52.172;5.378;2024-03-17T12:09:49;9.47;;;7.50;;
7957;SDS011;4024;52.172;5.378;2024-03-17T12:12:23;9.37;;;8.37;;
7957;SDS011;4024;52.172;5.378;2024-03-17T12:14:49;11.37;;;8.33;;
7957;SDS011;4024;52.172;5.378;2024-03-17T12:17:24;10.97;;;7.57;;
7957;SDS011;4024;52.172;5.378;2024-03-17T12:19:50;9.20;;;7.90;;
7957;SDS011;4024;52.172;5.378;2024-03-17T12:22:20;9.83;;;7.60;;
7957;SDS011;4024;52.172;5.378;2024-03-17T12:24:48;10.20;;;7.43;;
7957;SDS011;4024;52.172;5.378;2024-03-17T12:27:18;8.70;;;7.33;;
7957;SDS011;4024;52.172;5.378;2024-03-17T12:29:46;9.97;;;7.67;;
7957;SDS011;4024;52.172;5.378;2024-03-17T12:32:13;10.00;;;7.53;;
7957;SDS011;4024;52.172;5.378;2024-03-17T12:34:50;8.93;;;7.83;;
7957;SDS011;4024;52.172;5.378;2024-03-17T12:37:17;8.40;;;7.60;;
7957;SDS011;4024;52.172;5.378;2024-03-17T12:39:44;9.37;;;7.40;;
7957;SDS011;4024;52.172;5.378;2024-03-17T12:42:10;9.13;;;7.30;;
7957;SDS011;4024;52.172;5.378;2024-03-17T12:44:50;7.90;;;7.10;;
7957;SDS011;4024;52.172;5.378;2024-03-17T12:47:20;8.77;;;7.20;;
7957;SDS011;4024;52.172;5.378;2024-03-17T13:00:46;8.50;;;7.60;;
7957;SDS011;4024;52.172;5.378;2024-03-17T13:03:23;9.93;;;8.20;;
7957;SDS011;4024;52.172;5.378;2024-03-17T13:05:50;11.70;;;8.23;;
7957;SDS011;4024;52.172;5.378;2024-03-17T13:08:16;9.77;;;7.93;;
7957;SDS011;4024;52.172;5.378;2024-03-17T13:10:42;12.60;;;7.47;;
7957;SDS011;4024;52.172;5.378;2024-03-17T13:13:09;9.20;;;8.00;;
7957;SDS011;4024;52.172;5.378;2024-03-17T13:15:36;8.33;;;7.53;;
7957;SDS011;4024;52.172;5.378;2024-03-17T13:18:02;8.63;;;7.30;;
7957;SDS011;4024;52.172;5.378;2024-03-17T13:20:31;8.93;;;7.70;;
7957;SDS011;4024;52.172;5.378;2024-03-17T13:22:57;10.50;;;7.90;;
7957;SDS011;4024;52.172;5.378;2024-03-17T13:25:25;9.13;;;8.00;;
7957;SDS011;4024;52.172;5.378;2024-03-17T13:27:56;9.00;;;8.07;;
7957;SDS011;4024;52.172;5.378;2024-03-17T13:30:22;8.97;;;7.37;;
7957;SDS011;4024;52.172;5.378;2024-03-17T13:32:49;10.70;;;7.90;;
7957;SDS011;4024;52.172;5.378;2024-03-17T13:35:21;9.70;;;8.07;;
7957;SDS011;4024;52.172;5.378;2024-03-17T13:37:49;10.70;;;7.80;;
7957;SDS011;4024;52.172;5.378;2024-03-17T13:40:17;8.80;;;7.90;;
7957;SDS011;4024;52.172;5.378;2024-03-17T13:42:45;10.80;;;8.50;;
7957;SDS011;4024;52.172;5.378;2024-03-17T13:45:11;9.03;;;7.60;;
7957;SDS011;4024;52.172;5.378;2024-03-17T13:47:38;10.07;;;8.77;;
7957;SDS011;4024;52.172;5.378;2024-03-17T13:50:08;8.10;;;7.30;;
7957;SDS011;4024;52.172;5.378;2024-03-17T13:52:40;9.63;;;8.30;;
7957;SDS011;4024;52.172;5.378;2024-03-17T13:55:25;9.20;;;8.13;;
7957;SDS011;4024;52.172;5.378;2024-03-17T13:57:54;11.67;;;8.30;;
7957;SDS011;4024;52.172;5.378;2024-03-17T14:00:25;12.30;;;8.30;;
7957;SDS011;4024;52.172;5.378;2024-03-17T14:02:52;9.83;;;8.33;;
7957;SDS011;4024;52.172;5.378;2024-03-17T14:05:20;10.40;;;7.70;;
7957;SDS011;4024;52.172;5.378;2024-03-17T14:07:46;10.57;;;8.23;;
7957;SDS011;4024;52.172;5.378;2024-03-17T14:10:19;11.90;;;8.87;;
7957;SDS011;4024;52.172;5.378;2024-03-17T14:12:45;9.23;;;7.43;;
7957;SDS011;4024;52.172;5.378;2024-03-17T14:15:11;11.30;;;7.57;;
7957;SDS011;4024;52.172;5.378;2024-03-17T14:17:38;10.10;;;8.03;;
7957;SDS011;4024;52.172;5.378;2024-03-17T14:20:05;11.37;;;8.40;;
7957;SDS011;4024;52.172;5.378;2024-03-17T14:22:34;9.17;;;8.10;;
7957;SDS011;4024;52.172;5.378;2024-03-17T14:25:07;9.13;;;7.33;;
7957;SDS011;4024;52.172;5.378;2024-03-17T14:27:35;10.27;;;7.97;;
7957;SDS011;4024;52.172;5.378;2024-03-17T14:30:01;8.77;;;7.87;;
7957;SDS011;4024;52.172;5.378;2024-03-17T14:32:29;9.10;;;7.80;;
7957;SDS011;4024;52.172;5.378;2024-03-17T14:34:54;8.40;;;7.60;;
7957;SDS011;4024;52.172;5.378;2024-03-17T14:37:20;9.63;;;7.53;;
7957;SDS011;4024;52.172;5.378;2024-03-17T14:39:47;11.03;;;8.20;;
7957;SDS011;4024;52.172;5.378;2024-03-17T14:42:13;9.40;;;8.17;;
7957;SDS011;4024;52.172;5.378;2024-03-17T14:44:38;9.37;;;8.10;;
7957;SDS011;4024;52.172;5.378;2024-03-17T14:47:04;9.20;;;8.00;;
7957;SDS011;4024;52.172;5.378;2024-03-17T14:49:30;10.40;;;8.30;;
7957;SDS011;4024;52.172;5.378;2024-03-17T14:51:56;8.77;;;7.77;;
7957;SDS011;4024;52.172;5.378;2024-03-17T14:54:22;9.87;;;8.23;;
7957;SDS011;4024;52.172;5.378;2024-03-17T14:56:48;9.37;;;8.20;;
7957;SDS011;4024;52.172;5.378;2024-03-17T14:59:13;9.30;;;8.10;;
7957;SDS011;4024;52.172;5.378;2024-03-17T15:01:42;8.23;;;7.37;;
7957;SDS011;4024;52.172;5.378;2024-03-17T15:04:08;8.70;;;7.80;;
7957;SDS011;4024;52.172;5.378;2024-03-17T15:06:33;10.03;;;7.43;;
7957;SDS011;4024;52.172;5.378;2024-03-17T15:09:01;12.93;;;8.57;;
7957;SDS011;4024;52.172;5.378;2024-03-17T15:11:27;9.07;;;7.47;;
7957;SDS011;4024;52.172;5.378;2024-03-17T15:13:53;8.63;;;7.50;;
7957;SDS011;4024;52.172;5.378;2024-03-17T15:16:19;10.43;;;7.87;;
7957;SDS011;4024;52.172;5.378;2024-03-17T15:18:44;9.27;;;7.80;;
7957;SDS011;4024;52.172;5.378;2024-03-17T15:21:10;7.67;;;6.87;;
7957;SDS011;4024;52.172;5.378;2024-03-17T15:23:37;8.47;;;7.10;;
7957;SDS011;4024;52.172;5.378;2024-03-17T15:26:05;8.67;;;7.10;;
7957;SDS011;4024;52.172;5.378;2024-03-17T15:28:40;10.17;;;7.47;;
7957;SDS011;4024;52.172;5.378;2024-03-17T15:31:07;8.30;;;7.23;;
7957;SDS011;4024;52.172;5.378;2024-03-17T15:33:33;8.13;;;7.27;;
7957;SDS011;4024;52.172;5.378;2024-03-17T15:36:05;9.17;;;6.97;;
7957;SDS011;4024;52.172;5.378;2024-03-17T15:38:32;9.17;;;7.33;;